createdAt,value
2019-01-31T00:00:26.982Z,68.00
2019-01-31T00:01:26.973Z,67.20
2019-01-31T00:02:26.973Z,64.20
2019-01-31T00:03:26.951Z,71.10
2019-01-31T00:04:26.943Z,63.90
2019-01-31T00:05:26.933Z,64.20
2019-01-31T00:06:26.926Z,65.70
2019-01-31T00:07:26.909Z,72.50
2019-01-31T00:08:26.896Z,64.90
2019-01-31T00:09:26.889Z,66.90
2019-01-31T00:10:26.880Z,68.50
2019-01-31T00:11:26.872Z,69.80
2019-01-31T00:12:26.859Z,68.50
2019-01-31T00:13:26.853Z,66.20
2019-01-31T00:14:26.831Z,67.20
2019-01-31T00:15:26.823Z,69.10
2019-01-31T00:16:26.810Z,68.30
2019-01-31T00:17:26.800Z,65.40
2019-01-31T00:18:26.802Z,69.60
2019-01-31T00:19:26.778Z,64.90
2019-01-31T00:20:26.769Z,71.70
2019-01-31T00:21:26.755Z,65.10
2019-01-31T00:22:26.746Z,69.50
2019-01-31T00:23:26.735Z,66.50
2019-01-31T00:24:26.731Z,72.30
2019-01-31T00:25:26.714Z,69.20
2019-01-31T00:26:26.703Z,70.60
2019-01-31T00:27:26.693Z,66.50
2019-01-31T00:28:26.681Z,68.60
2019-01-31T00:29:26.679Z,71.60
2019-01-31T00:30:26.679Z,69.70
2019-01-31T00:31:26.656Z,69.90
2019-01-31T00:32:26.641Z,67.30
2019-01-31T00:33:26.628Z,69.00
2019-01-31T00:34:26.631Z,71.70
2019-01-31T00:35:26.617Z,71.30
2019-01-31T00:36:26.612Z,67.70
2019-01-31T00:37:26.586Z,69.00
2019-01-31T00:38:26.576Z,68.90
2019-01-31T00:39:26.565Z,65.00
2019-01-31T00:40:26.557Z,69.70
2019-01-31T00:41:26.545Z,70.40
2019-01-31T00:42:26.533Z,73.70
2019-01-31T00:43:26.520Z,69.60
2019-01-31T00:44:26.510Z,65.30
2019-01-31T00:45:26.579Z,68.90
2019-01-31T00:46:26.488Z,66.20
2019-01-31T00:47:26.487Z,71.40
2019-01-31T00:48:26.469Z,62.40
2019-01-31T00:49:26.457Z,69.20
2019-01-31T00:50:26.445Z,67.40
2019-01-31T00:51:26.439Z,65.80
2019-01-31T00:52:26.428Z,67.30
2019-01-31T00:53:26.422Z,67.00
2019-01-31T00:54:26.400Z,68.90
2019-01-31T00:55:26.391Z,68.10
2019-01-31T00:56:26.380Z,68.90
2019-01-31T00:57:26.385Z,69.80
2019-01-31T00:58:26.362Z,66.20
2019-01-31T00:59:26.365Z,63.00
2019-01-31T01:00:26.337Z,67.20
2019-01-31T01:01:26.401Z,68.40
2019-01-31T01:02:26.316Z,67.60
2019-01-31T01:03:26.304Z,62.40
2019-01-31T01:04:26.299Z,66.60
2019-01-31T01:05:26.283Z,65.00
2019-01-31T01:06:26.370Z,65.30
2019-01-31T01:07:26.297Z,67.50
2019-01-31T01:08:26.254Z,65.70
2019-01-31T01:09:26.241Z,62.50
2019-01-31T01:10:26.247Z,66.30
2019-01-31T01:11:26.217Z,63.50
2019-01-31T01:12:26.207Z,63.80
2019-01-31T01:13:26.196Z,63.50
2019-01-31T01:14:26.186Z,65.30
2019-01-31T01:15:26.181Z,64.00
2019-01-31T01:16:26.164Z,64.40
2019-01-31T01:17:26.154Z,64.40
2019-01-31T01:18:26.144Z,62.50
2019-01-31T01:19:26.131Z,65.70
2019-01-31T01:20:26.122Z,62.00
2019-01-31T01:21:26.110Z,63.60
2019-01-31T01:22:26.099Z,70.00
2019-01-31T01:23:26.088Z,66.50
2019-01-31T01:24:26.078Z,61.60
2019-01-31T01:25:26.068Z,62.50
2019-01-31T01:26:26.063Z,62.60
2019-01-31T01:27:26.053Z,66.20
2019-01-31T01:28:26.041Z,59.00
2019-01-31T01:29:26.021Z,61.70
2019-01-31T01:30:26.012Z,63.10
2019-01-31T01:31:26.004Z,65.70
2019-01-31T01:32:26.005Z,60.00
2019-01-31T01:33:25.979Z,61.60
2019-01-31T01:34:25.980Z,64.50
2019-01-31T01:35:25.964Z,65.20
2019-01-31T01:36:25.955Z,62.50
2019-01-31T01:37:25.937Z,64.40
2019-01-31T01:38:25.926Z,64.40
2019-01-31T01:39:25.921Z,64.50
2019-01-31T01:40:25.903Z,65.80
2019-01-31T01:41:25.897Z,59.70
2019-01-31T01:42:25.883Z,59.60
2019-01-31T01:43:25.872Z,60.20
2019-01-31T01:44:25.867Z,61.30
2019-01-31T01:45:25.850Z,68.60
2019-01-31T01:46:25.839Z,61.80
2019-01-31T01:47:25.831Z,66.90
2019-01-31T01:48:25.817Z,61.40
2019-01-31T01:49:25.811Z,61.40
2019-01-31T01:50:25.806Z,63.60
2019-01-31T01:51:25.786Z,62.30
2019-01-31T01:52:25.777Z,64.20
2019-01-31T01:53:25.764Z,61.10
2019-01-31T01:54:25.761Z,60.20
2019-01-31T01:55:25.742Z,64.60
2019-01-31T01:56:25.730Z,58.00
2019-01-31T01:57:25.723Z,59.50
2019-01-31T01:58:25.715Z,61.70
2019-01-31T01:59:25.699Z,59.70
2019-01-31T02:00:25.687Z,65.20
2019-01-31T02:01:25.680Z,60.90
2019-01-31T02:02:25.665Z,60.90
2019-01-31T02:03:25.656Z,62.90
2019-01-31T02:04:25.646Z,63.50
2019-01-31T02:05:25.640Z,59.80
2019-01-31T02:06:25.627Z,61.30
2019-01-31T02:07:25.621Z,61.60
2019-01-31T02:08:25.602Z,62.40
2019-01-31T02:09:30.309Z,62.50
2019-01-31T02:10:26.577Z,62.20
2019-01-31T02:11:25.571Z,63.40
2019-01-31T02:12:25.561Z,59.40
2019-01-31T02:13:25.548Z,61.90
2019-01-31T02:14:25.549Z,61.20
2019-01-31T02:15:25.525Z,66.10
2019-01-31T02:16:25.513Z,64.90
2019-01-31T02:17:25.517Z,59.80
2019-01-31T02:18:25.496Z,63.80
2019-01-31T02:19:25.491Z,66.10
2019-01-31T02:20:25.472Z,59.30
2019-01-31T02:21:25.461Z,64.90
2019-01-31T02:22:25.459Z,63.00
2019-01-31T02:23:25.441Z,61.00
2019-01-31T02:24:25.445Z,66.40
2019-01-31T02:25:25.417Z,62.70
2019-01-31T02:26:25.405Z,65.70
2019-01-31T02:27:25.396Z,61.30
2019-01-31T02:28:25.384Z,61.10
2019-01-31T02:29:25.375Z,59.60
2019-01-31T02:30:25.364Z,61.40
2019-01-31T02:31:25.351Z,60.10
2019-01-31T02:32:25.346Z,61.10
2019-01-31T02:33:25.331Z,59.60
2019-01-31T02:34:25.320Z,64.20
2019-01-31T02:35:25.312Z,61.40
2019-01-31T02:36:25.303Z,55.80
2019-01-31T02:37:25.319Z,62.40
2019-01-31T02:38:25.280Z,60.90
2019-01-31T02:39:25.269Z,58.70
2019-01-31T02:40:25.257Z,61.70
2019-01-31T02:41:25.262Z,64.40
2019-01-31T02:42:25.235Z,62.20
2019-01-31T02:43:25.222Z,61.70
2019-01-31T02:44:25.216Z,62.80
2019-01-31T02:45:25.209Z,60.50
2019-01-31T02:46:25.192Z,60.00
2019-01-31T02:47:25.178Z,59.70
2019-01-31T02:48:25.168Z,59.80
2019-01-31T02:49:25.161Z,59.30
2019-01-31T02:50:25.153Z,62.10
2019-01-31T02:51:25.138Z,58.70
2019-01-31T02:52:25.129Z,61.30
2019-01-31T02:53:25.115Z,64.50
2019-01-31T02:54:25.102Z,62.00
2019-01-31T02:55:25.092Z,60.50
2019-01-31T02:56:25.940Z,60.30
2019-01-31T02:57:25.073Z,64.10
2019-01-31T02:58:25.070Z,57.30
2019-01-31T02:59:25.050Z,58.60
2019-01-31T03:00:25.038Z,59.50
2019-01-31T03:01:25.032Z,56.40
2019-01-31T03:02:25.031Z,62.10
2019-01-31T03:03:25.012Z,60.60
2019-01-31T03:04:24.997Z,58.10
2019-01-31T03:05:24.983Z,61.50
2019-01-31T03:06:24.973Z,59.10
2019-01-31T03:07:24.961Z,56.90
2019-01-31T03:08:24.956Z,59.00
2019-01-31T03:09:24.942Z,58.40
2019-01-31T03:10:24.930Z,59.00
2019-01-31T03:11:25.030Z,54.90
2019-01-31T03:12:24.910Z,55.50
2019-01-31T03:13:24.906Z,57.40
2019-01-31T03:14:24.889Z,57.90
2019-01-31T03:15:24.886Z,55.50
2019-01-31T03:16:24.868Z,54.70
2019-01-31T03:17:24.855Z,55.70
2019-01-31T03:18:24.844Z,56.20
2019-01-31T03:19:24.845Z,57.00
2019-01-31T03:20:24.898Z,54.80
2019-01-31T03:21:24.812Z,55.80
2019-01-31T03:22:24.803Z,56.40
2019-01-31T03:23:24.799Z,55.20
2019-01-31T03:24:24.782Z,58.90
2019-01-31T03:25:24.782Z,57.40
2019-01-31T03:26:24.772Z,56.30
2019-01-31T03:27:24.751Z,55.20
2019-01-31T03:28:24.736Z,58.00
2019-01-31T03:29:24.729Z,56.00
2019-01-31T03:30:25.099Z,54.60
2019-01-31T03:31:24.704Z,56.70
2019-01-31T03:32:24.706Z,56.50
2019-01-31T03:33:24.685Z,56.10
2019-01-31T03:34:24.671Z,54.60
2019-01-31T03:35:24.659Z,57.60
2019-01-31T03:36:24.658Z,58.20
2019-01-31T03:37:24.647Z,53.90
2019-01-31T03:38:24.640Z,54.00
2019-01-31T03:39:24.616Z,54.50
2019-01-31T03:40:24.606Z,56.50
2019-01-31T03:41:24.600Z,53.70
2019-01-31T03:42:24.590Z,55.80
2019-01-31T03:43:24.574Z,55.90
2019-01-31T03:44:24.565Z,56.00
2019-01-31T03:45:24.553Z,52.60
2019-01-31T03:46:24.541Z,50.60
2019-01-31T03:47:24.533Z,54.10
2019-01-31T03:48:24.525Z,53.50
2019-01-31T03:49:24.512Z,55.90
2019-01-31T03:50:24.501Z,53.70
2019-01-31T03:51:24.487Z,55.80
2019-01-31T03:52:24.476Z,55.20
2019-01-31T03:53:24.467Z,55.40
2019-01-31T03:54:24.459Z,53.10
2019-01-31T03:55:24.467Z,53.00
2019-01-31T03:56:24.435Z,52.30
2019-01-31T03:57:24.421Z,50.80
2019-01-31T03:58:24.421Z,53.60
2019-01-31T03:59:24.402Z,51.90
2019-01-31T04:00:24.401Z,55.00
2019-01-31T04:01:24.381Z,50.30
2019-01-31T04:02:24.383Z,51.70
2019-01-31T04:03:24.357Z,50.30
2019-01-31T04:04:24.355Z,52.20
2019-01-31T04:05:24.338Z,52.00
2019-01-31T04:06:24.334Z,50.30
2019-01-31T04:07:24.318Z,53.80
2019-01-31T04:08:24.304Z,52.70
2019-01-31T04:09:24.294Z,51.80
2019-01-31T04:10:24.291Z,52.50
2019-01-31T04:11:24.277Z,50.90
2019-01-31T04:12:24.269Z,51.40
2019-01-31T04:13:24.250Z,57.20
2019-01-31T04:14:27.272Z,50.30
2019-01-31T04:15:24.234Z,52.10
2019-01-31T04:16:24.217Z,49.70
2019-01-31T04:17:24.218Z,52.10
2019-01-31T04:18:24.195Z,50.40
2019-01-31T04:19:24.185Z,47.60
2019-01-31T04:20:24.175Z,48.70
2019-01-31T04:21:24.162Z,49.70
2019-01-31T04:22:24.152Z,52.60
2019-01-31T04:23:24.148Z,49.50
2019-01-31T04:24:24.134Z,49.50
2019-01-31T04:25:24.121Z,47.00
2019-01-31T04:26:24.108Z,49.70
2019-01-31T04:27:24.107Z,51.00
2019-01-31T04:28:24.088Z,49.70
2019-01-31T04:29:24.083Z,49.70
2019-01-31T04:30:24.066Z,47.20
2019-01-31T04:31:24.061Z,48.60
2019-01-31T04:32:24.042Z,46.90
2019-01-31T04:33:24.042Z,48.50
2019-01-31T04:34:24.029Z,49.70
2019-01-31T04:35:24.016Z,47.90
2019-01-31T04:36:24.004Z,47.40
2019-01-31T04:37:23.994Z,56.00
2019-01-31T04:38:23.981Z,49.40
2019-01-31T04:39:23.975Z,48.90
2019-01-31T04:40:30.863Z,45.70
2019-01-31T04:41:24.944Z,48.20
2019-01-31T04:42:23.937Z,48.90
2019-01-31T04:43:23.927Z,46.90
2019-01-31T04:44:23.917Z,50.20
2019-01-31T04:45:23.906Z,47.70
2019-01-31T04:46:23.901Z,48.70
2019-01-31T04:47:23.880Z,53.10
2019-01-31T04:48:23.869Z,45.60
2019-01-31T04:49:23.860Z,49.90
2019-01-31T04:50:23.854Z,48.20
2019-01-31T04:51:23.843Z,47.20
2019-01-31T04:52:23.827Z,46.50
2019-01-31T04:53:23.815Z,44.50
2019-01-31T04:54:23.805Z,49.10
2019-01-31T04:55:23.794Z,49.40
2019-01-31T04:56:23.784Z,48.70
2019-01-31T04:57:23.777Z,47.50
2019-01-31T04:58:23.764Z,44.80
2019-01-31T04:59:23.752Z,45.10
2019-01-31T05:00:23.740Z,46.90
2019-01-31T05:01:26.533Z,46.00
2019-01-31T05:02:23.721Z,48.30
2019-01-31T05:03:23.716Z,47.10
2019-01-31T05:04:23.705Z,44.70
2019-01-31T05:05:23.688Z,45.20
2019-01-31T05:06:23.679Z,43.80
2019-01-31T05:07:23.666Z,45.00
2019-01-31T05:08:23.663Z,46.00
2019-01-31T05:09:23.642Z,46.30
2019-01-31T05:10:23.638Z,48.00
2019-01-31T05:11:23.622Z,45.40
2019-01-31T05:12:23.614Z,48.50
2019-01-31T05:13:23.600Z,45.40
2019-01-31T05:14:23.594Z,48.40
2019-01-31T05:15:23.580Z,48.80
2019-01-31T05:16:23.571Z,47.50
2019-01-31T05:17:23.557Z,46.30
2019-01-31T05:18:23.548Z,46.30
2019-01-31T05:19:23.536Z,47.00
2019-01-31T05:20:23.531Z,45.50
2019-01-31T05:21:23.511Z,47.50
2019-01-31T05:22:23.501Z,44.10
2019-01-31T05:23:23.491Z,47.30
2019-01-31T05:24:23.492Z,46.10
2019-01-31T05:25:23.470Z,47.70
2019-01-31T05:26:23.458Z,44.00
2019-01-31T05:27:23.447Z,44.90
2019-01-31T05:28:23.440Z,43.50
2019-01-31T05:29:23.428Z,46.10
2019-01-31T05:30:23.417Z,45.60
2019-01-31T05:31:23.420Z,47.40
2019-01-31T05:32:23.394Z,45.30
2019-01-31T05:33:23.385Z,48.00
2019-01-31T05:34:23.378Z,46.00
2019-01-31T05:35:23.365Z,46.00
2019-01-31T05:36:23.352Z,47.00
2019-01-31T05:37:23.344Z,46.40
2019-01-31T05:38:23.332Z,46.20
2019-01-31T05:39:23.318Z,45.60
2019-01-31T05:40:23.306Z,48.70
2019-01-31T05:41:23.316Z,44.20
2019-01-31T05:42:23.289Z,44.10
2019-01-31T05:43:23.283Z,45.40
2019-01-31T05:44:23.265Z,42.20
2019-01-31T05:45:23.261Z,46.60
2019-01-31T05:46:23.243Z,44.30
2019-01-31T05:47:23.234Z,44.20
2019-01-31T05:48:23.221Z,45.00
2019-01-31T05:49:23.223Z,44.70
2019-01-31T05:50:23.201Z,44.30
2019-01-31T05:51:23.194Z,43.40
2019-01-31T05:52:23.178Z,45.40
2019-01-31T05:53:23.169Z,41.80
2019-01-31T05:54:23.164Z,44.50
2019-01-31T05:55:23.154Z,41.10
2019-01-31T05:56:23.140Z,42.60
2019-01-31T05:57:23.122Z,43.00
2019-01-31T05:58:23.117Z,47.90
2019-01-31T05:59:23.104Z,48.90
2019-01-31T06:00:23.112Z,44.70
2019-01-31T06:01:23.081Z,43.00
2019-01-31T06:02:23.075Z,45.10
2019-01-31T06:03:23.059Z,41.30
2019-01-31T06:04:23.048Z,46.00
2019-01-31T06:05:23.036Z,43.90
2019-01-31T06:06:23.025Z,43.80
2019-01-31T06:07:23.020Z,44.40
2019-01-31T06:08:23.003Z,46.30
2019-01-31T06:09:22.997Z,42.00
2019-01-31T06:10:22.981Z,45.10
2019-01-31T06:11:22.978Z,45.50
2019-01-31T06:12:22.961Z,43.30
2019-01-31T06:13:22.952Z,43.40
2019-01-31T06:14:22.942Z,47.30
2019-01-31T06:15:22.936Z,41.10
2019-01-31T06:16:22.923Z,45.00
2019-01-31T06:17:22.924Z,43.00
2019-01-31T06:18:22.897Z,43.80
2019-01-31T06:19:22.885Z,45.40
2019-01-31T06:20:22.890Z,44.60
2019-01-31T06:21:22.866Z,41.90
2019-01-31T06:22:24.962Z,43.40
2019-01-31T06:23:22.841Z,42.60
2019-01-31T06:24:22.835Z,45.30
2019-01-31T06:25:22.821Z,39.80
2019-01-31T06:26:22.813Z,42.60
2019-01-31T06:27:22.797Z,40.90
2019-01-31T06:28:22.797Z,44.40
2019-01-31T06:29:22.777Z,44.80
2019-01-31T06:30:22.766Z,41.00
2019-01-31T06:31:22.758Z,40.30
2019-01-31T06:32:22.750Z,43.00
2019-01-31T06:33:22.736Z,42.20
2019-01-31T06:34:22.730Z,44.30
2019-01-31T06:35:22.711Z,42.90
2019-01-31T06:36:22.700Z,40.60
2019-01-31T06:37:22.699Z,45.70
2019-01-31T06:38:22.679Z,44.20
2019-01-31T06:39:22.667Z,43.70
2019-01-31T06:40:22.657Z,43.90
2019-01-31T06:41:22.651Z,43.10
2019-01-31T06:42:22.687Z,41.10
2019-01-31T06:43:22.630Z,42.70
2019-01-31T06:44:22.614Z,41.40
2019-01-31T06:45:22.610Z,43.40
2019-01-31T06:46:22.594Z,40.90
2019-01-31T06:47:22.581Z,42.10
2019-01-31T06:48:22.571Z,44.70
2019-01-31T06:49:22.563Z,43.30
2019-01-31T06:50:22.552Z,46.10
2019-01-31T06:51:22.538Z,44.70
2019-01-31T06:52:22.529Z,45.10
2019-01-31T06:53:22.517Z,43.50
2019-01-31T06:54:22.509Z,44.40
2019-01-31T06:55:22.494Z,42.60
2019-01-31T06:56:22.491Z,44.40
2019-01-31T06:57:22.472Z,47.90
2019-01-31T06:58:22.466Z,51.20
2019-01-31T06:59:22.456Z,45.50
2019-01-31T07:00:22.497Z,41.60
2019-01-31T07:01:22.435Z,47.40
2019-01-31T07:02:22.419Z,42.30
2019-01-31T07:03:22.408Z,46.80
2019-01-31T07:04:22.399Z,46.20
2019-01-31T07:05:22.396Z,44.50
2019-01-31T07:57:52.591Z,39.70
2019-01-31T07:58:52.563Z,40.40
2019-01-31T08:00:27.924Z,41.50
2019-01-31T08:01:27.899Z,41.10
2019-01-31T08:02:58.365Z,33.70
2019-01-31T08:04:02.520Z,40.90
2019-01-31T08:05:29.848Z,40.10
2019-01-31T08:06:29.811Z,41.00
2019-01-31T08:08:00.299Z,38.10
2019-01-31T08:09:00.282Z,41.80
2019-01-31T08:10:00.366Z,45.50
2019-01-31T08:11:00.257Z,42.50
2019-01-31T08:12:00.244Z,43.30
2019-01-31T08:13:00.248Z,41.30
2019-01-31T08:14:00.226Z,41.70
2019-01-31T08:15:00.343Z,41.70
2019-01-31T08:16:00.256Z,41.40
2019-01-31T08:17:00.190Z,41.20
2019-01-31T08:18:00.181Z,42.40
2019-01-31T08:19:00.172Z,43.70
2019-01-31T08:20:00.323Z,44.50
2019-01-31T08:21:00.183Z,40.40
2019-01-31T08:22:00.141Z,40.10
2019-01-31T08:23:00.411Z,44.70
2019-01-31T08:24:00.135Z,42.20
2019-01-31T08:25:00.188Z,41.60
2019-01-31T08:26:00.122Z,42.30
2019-01-31T08:27:00.091Z,40.00
2019-01-31T08:28:00.080Z,41.10
2019-01-31T08:29:00.069Z,44.90
2019-01-31T08:30:00.088Z,41.30
2019-01-31T08:31:00.047Z,41.50
2019-01-31T08:32:00.042Z,42.20
2019-01-31T08:33:00.068Z,41.00
2019-01-31T08:34:00.020Z,42.70
2019-01-31T08:35:00.002Z,41.30
2019-01-31T08:35:59.992Z,41.50
2019-01-31T08:36:59.980Z,42.50
2019-01-31T08:37:59.971Z,42.30
2019-01-31T08:38:59.962Z,40.60
2019-01-31T08:39:59.948Z,48.40
2019-01-31T08:40:59.940Z,43.30
2019-01-31T08:42:03.896Z,45.10
2019-01-31T08:42:59.917Z,42.00
2019-01-31T08:43:59.912Z,43.40
2019-01-31T08:44:59.899Z,43.80
2019-01-31T08:45:59.899Z,40.70
2019-01-31T08:46:59.872Z,42.20
2019-01-31T08:47:59.872Z,43.40
2019-01-31T08:48:59.852Z,42.20
2019-01-31T08:49:59.856Z,44.40
2019-01-31T08:50:59.871Z,42.80
2019-01-31T08:51:59.820Z,44.00
2019-01-31T08:52:59.812Z,41.50
2019-01-31T08:53:59.797Z,40.80
2019-01-31T08:54:59.794Z,39.70
2019-01-31T08:55:59.777Z,44.30
2019-01-31T08:56:59.768Z,41.30
2019-01-31T08:57:59.758Z,43.90
2019-01-31T08:58:59.745Z,39.50
2019-01-31T08:59:59.733Z,40.00
2019-01-31T09:00:59.723Z,44.60
2019-01-31T09:01:59.712Z,39.80
2019-01-31T09:02:59.701Z,41.60
2019-01-31T09:03:59.691Z,41.80
2019-01-31T09:04:59.680Z,40.70
2019-01-31T09:05:59.673Z,42.10
2019-01-31T09:06:59.802Z,38.80
2019-01-31T09:07:59.648Z,41.50
2019-01-31T09:08:59.637Z,43.00
2019-01-31T09:09:59.626Z,38.90
2019-01-31T09:10:59.623Z,41.10
2019-01-31T09:11:59.608Z,43.50
2019-01-31T09:12:59.616Z,38.20
2019-01-31T09:13:59.583Z,41.60
2019-01-31T09:14:59.576Z,42.00
2019-01-31T09:15:59.798Z,39.60
2019-01-31T09:16:59.678Z,39.60
2019-01-31T09:17:59.541Z,40.80
2019-01-31T09:18:59.530Z,41.80
2019-01-31T09:19:59.521Z,41.60
2019-01-31T09:20:59.512Z,41.50
2019-01-31T09:21:59.503Z,42.90
2019-01-31T09:22:59.487Z,42.80
2019-01-31T09:23:59.481Z,42.10
2019-01-31T09:24:59.464Z,43.60
2019-01-31T09:25:59.454Z,41.90
2019-01-31T09:26:59.444Z,39.20
2019-01-31T09:27:59.442Z,40.90
2019-01-31T09:28:59.423Z,40.70
2019-01-31T09:29:59.422Z,38.30
2019-01-31T09:30:59.400Z,41.00
2019-01-31T09:31:59.391Z,39.70
2019-01-31T09:32:59.378Z,41.30
2019-01-31T09:33:59.369Z,41.10
2019-01-31T09:34:59.369Z,39.90
2019-01-31T09:35:59.347Z,42.50
2019-01-31T09:36:59.339Z,38.30
2019-01-31T09:37:59.325Z,37.50
2019-01-31T09:38:59.315Z,38.20
2019-01-31T09:39:59.710Z,40.60
2019-01-31T09:40:59.303Z,38.60
2019-01-31T09:41:59.290Z,37.30
2019-01-31T09:42:59.271Z,37.90
2019-01-31T09:43:59.265Z,40.10
2019-01-31T09:44:59.254Z,38.30
2019-01-31T09:45:59.241Z,38.50
2019-01-31T09:46:59.237Z,38.50
2019-01-31T09:47:59.218Z,42.00
2019-01-31T09:48:59.230Z,39.20
2019-01-31T09:49:59.201Z,38.70
2019-01-31T09:50:59.202Z,41.20
2019-01-31T09:51:59.182Z,39.90
2019-01-31T09:52:59.177Z,38.60
2019-01-31T09:53:59.155Z,42.60
2019-01-31T09:54:59.143Z,40.10
2019-01-31T09:55:59.136Z,40.00
2019-01-31T09:56:59.121Z,39.10
2019-01-31T09:57:59.119Z,40.80
2019-01-31T09:58:59.102Z,41.20
2019-01-31T09:59:59.096Z,38.40
2019-01-31T10:00:59.079Z,39.70
2019-01-31T10:01:59.073Z,38.00
2019-01-31T10:02:59.057Z,37.90
2019-01-31T10:03:59.056Z,39.60
2019-01-31T10:04:59.036Z,37.80
2019-01-31T10:05:59.024Z,40.30
2019-01-31T10:06:59.018Z,38.60
2019-01-31T10:07:59.019Z,38.10
2019-01-31T10:08:58.995Z,36.80
2019-01-31T10:09:59.036Z,38.20
2019-01-31T10:10:58.976Z,39.10
2019-01-31T10:11:58.986Z,37.70
2019-01-31T10:12:59.021Z,38.50
2019-01-31T10:13:58.969Z,37.80
2019-01-31T10:14:58.984Z,38.30
2019-01-31T10:15:58.969Z,40.10
2019-01-31T10:16:58.924Z,38.90
2019-01-31T10:17:58.928Z,39.60
2019-01-31T10:18:58.961Z,39.90
2019-01-31T10:19:58.924Z,36.30
2019-01-31T10:20:58.913Z,38.70
2019-01-31T10:21:58.962Z,38.90
2019-01-31T10:22:58.845Z,37.40
2019-01-31T10:23:58.897Z,38.50
2019-01-31T10:24:58.837Z,37.80
2019-01-31T10:25:58.843Z,36.70
2019-01-31T10:26:58.813Z,38.80
2019-01-31T10:27:58.791Z,36.40
2019-01-31T10:29:01.736Z,37.10
2019-01-31T10:29:58.767Z,38.10
2019-01-31T10:30:58.764Z,37.30
2019-01-31T10:31:58.755Z,34.60
2019-01-31T10:32:58.744Z,36.60
2019-01-31T10:33:58.726Z,39.80
2019-01-31T10:34:58.715Z,38.70
2019-01-31T10:35:58.704Z,34.70
2019-01-31T10:36:58.697Z,39.50
2019-01-31T10:37:58.682Z,38.50
2019-01-31T10:38:58.672Z,37.10
2019-01-31T10:39:58.662Z,36.80
2019-01-31T10:40:58.651Z,37.00
2019-01-31T10:41:58.648Z,36.30
2019-01-31T10:42:58.631Z,38.30
2019-01-31T10:43:58.623Z,35.30
2019-01-31T10:44:58.609Z,32.80
2019-01-31T10:45:58.600Z,34.40
2019-01-31T10:46:58.602Z,36.70
2019-01-31T10:47:58.580Z,34.60
2019-01-31T10:48:58.576Z,34.40
2019-01-31T10:49:58.576Z,37.90
2019-01-31T10:50:58.760Z,33.30
2019-01-31T10:51:58.533Z,32.60
2019-01-31T10:52:58.539Z,33.40
2019-01-31T10:53:58.514Z,33.40
2019-01-31T10:54:58.511Z,33.30
2019-01-31T10:55:58.489Z,31.10
2019-01-31T10:56:58.480Z,33.50
2019-01-31T10:57:58.469Z,32.90
2019-01-31T10:58:58.458Z,35.70
2019-01-31T10:59:58.451Z,34.30
2019-01-31T11:00:58.437Z,33.20
2019-01-31T11:01:58.425Z,30.50
2019-01-31T11:02:58.415Z,34.60
2019-01-31T11:03:58.406Z,28.80
2019-01-31T11:04:58.395Z,31.20
2019-01-31T11:05:58.390Z,30.10
2019-01-31T11:06:58.385Z,30.80
2019-01-31T11:07:59.636Z,28.30
2019-01-31T11:08:58.353Z,29.10
2019-01-31T11:09:58.340Z,30.70
2019-01-31T11:10:58.352Z,32.90
2019-01-31T11:11:58.327Z,28.80
2019-01-31T11:13:00.699Z,31.60
2019-01-31T11:13:58.296Z,29.00
2019-01-31T11:14:58.287Z,31.90
2019-01-31T11:15:58.279Z,32.30
2019-01-31T11:16:58.265Z,29.30
2019-01-31T11:17:58.267Z,29.30
2019-01-31T11:19:05.493Z,32.00
2019-01-31T11:19:59.231Z,30.40
2019-01-31T11:20:58.223Z,28.90
2019-01-31T11:21:58.214Z,27.00
2019-01-31T11:22:58.202Z,30.00
2019-01-31T11:23:58.212Z,27.90
2019-01-31T11:24:58.180Z,28.60
2019-01-31T11:25:58.171Z,29.00
2019-01-31T11:26:58.158Z,29.50
2019-01-31T11:27:58.240Z,28.40
2019-01-31T11:28:58.137Z,25.20
2019-01-31T11:29:58.133Z,27.40
2019-01-31T11:30:58.116Z,25.00
2019-01-31T11:31:58.106Z,31.00
2019-01-31T11:32:58.094Z,26.70
2019-01-31T11:33:58.091Z,27.50
2019-01-31T11:34:58.079Z,27.10
2019-01-31T11:35:58.072Z,28.90
2019-01-31T11:36:58.056Z,29.10
2019-01-31T11:37:58.043Z,27.20
2019-01-31T11:39:00.076Z,29.00
2019-01-31T11:39:58.038Z,27.90
2019-01-31T11:40:58.010Z,27.10
2019-01-31T11:41:58.002Z,26.90
2019-01-31T11:42:57.988Z,26.40
2019-01-31T11:43:57.986Z,26.10
2019-01-31T11:44:57.965Z,25.80
2019-01-31T11:45:57.956Z,26.60
2019-01-31T11:46:57.951Z,25.60
2019-01-31T11:47:57.941Z,27.20
2019-01-31T11:48:57.926Z,26.70
2019-01-31T11:49:57.913Z,24.30
2019-01-31T11:50:57.904Z,26.60
2019-01-31T11:51:57.893Z,25.60
2019-01-31T11:52:57.891Z,26.50
2019-01-31T11:53:57.869Z,24.50
2019-01-31T11:54:57.860Z,26.60
2019-01-31T11:55:57.854Z,25.70
2019-01-31T11:57:05.324Z,24.70
2019-01-31T11:57:58.827Z,25.10
2019-01-31T11:58:57.815Z,24.10
2019-01-31T11:59:57.808Z,26.30
2019-01-31T12:00:57.795Z,25.70
2019-01-31T12:01:57.784Z,25.70
2019-01-31T12:02:57.774Z,25.70
2019-01-31T12:03:57.763Z,20.70
2019-01-31T12:04:57.756Z,23.90
2019-01-31T12:05:57.742Z,22.30
2019-01-31T12:06:57.729Z,25.60
2019-01-31T12:07:57.720Z,23.20
2019-01-31T12:08:57.710Z,24.50
2019-01-31T12:09:57.718Z,25.30
2019-01-31T12:10:57.689Z,24.20
2019-01-31T12:11:57.685Z,27.00
2019-01-31T12:12:57.664Z,23.90
2019-01-31T12:13:57.669Z,22.40
2019-01-31T12:14:57.679Z,26.00
2019-01-31T12:15:57.644Z,23.60
2019-01-31T12:16:57.633Z,23.90
2019-01-31T12:17:57.610Z,23.80
2019-01-31T12:18:57.602Z,22.20
2019-01-31T12:19:57.591Z,23.60
2019-01-31T12:20:57.592Z,24.10
2019-01-31T12:21:57.569Z,25.40
2019-01-31T12:22:57.569Z,24.70
2019-01-31T12:23:57.569Z,22.60
2019-01-31T12:24:57.538Z,22.10
2019-01-31T12:25:57.526Z,22.30
2019-01-31T12:26:57.523Z,24.20
2019-01-31T12:27:57.508Z,23.00
2019-01-31T12:28:57.501Z,22.40
2019-01-31T12:29:57.486Z,23.90
2019-01-31T12:30:57.480Z,22.00
2019-01-31T12:31:57.464Z,21.30
2019-01-31T12:32:57.458Z,24.40
2019-01-31T12:33:57.449Z,25.30
2019-01-31T12:34:57.431Z,22.60
2019-01-31T12:35:57.418Z,23.40
2019-01-31T12:36:57.411Z,21.90
2019-01-31T12:37:57.405Z,22.90
2019-01-31T12:38:57.387Z,21.70
2019-01-31T12:39:57.379Z,20.60
2019-01-31T12:40:57.366Z,22.60
2019-01-31T12:41:57.356Z,18.70
2019-01-31T12:42:57.345Z,20.40
2019-01-31T12:43:57.335Z,21.00
2019-01-31T12:44:57.327Z,21.80
2019-01-31T12:45:57.316Z,20.40
2019-01-31T12:46:57.317Z,18.30
2019-01-31T12:47:57.294Z,22.30
2019-01-31T12:48:57.280Z,21.40
2019-01-31T12:49:57.274Z,21.10
2019-01-31T12:50:57.260Z,20.50
2019-01-31T12:51:57.248Z,21.20
2019-01-31T12:52:57.239Z,22.90
2019-01-31T12:53:57.232Z,20.20
2019-01-31T12:54:57.219Z,20.30
2019-01-31T12:55:57.216Z,22.10
2019-01-31T12:56:57.196Z,19.90
2019-01-31T12:57:57.187Z,21.80
2019-01-31T12:58:57.174Z,21.50
2019-01-31T12:59:57.164Z,24.00
2019-01-31T13:00:57.160Z,22.90
2019-01-31T13:01:57.143Z,22.20
2019-01-31T13:02:57.130Z,21.50
2019-01-31T13:03:57.126Z,23.00
2019-01-31T13:04:57.110Z,22.80
2019-01-31T13:05:57.101Z,21.60
2019-01-31T13:06:57.143Z,22.50
2019-01-31T13:07:57.100Z,23.00
2019-01-31T13:08:57.068Z,20.70
2019-01-31T13:09:57.074Z,21.30
2019-01-31T13:10:57.052Z,23.90
2019-01-31T13:11:57.039Z,21.30
2019-01-31T13:12:57.028Z,25.00
2019-01-31T13:13:57.035Z,23.00
2019-01-31T13:14:57.006Z,25.50
2019-01-31T13:15:57.001Z,25.80
2019-01-31T13:16:56.990Z,27.10
2019-01-31T13:17:56.978Z,23.90
2019-01-31T13:18:56.959Z,24.10
2019-01-31T13:19:58.040Z,21.80
2019-01-31T13:20:57.002Z,21.70
2019-01-31T13:21:57.078Z,23.40
2019-01-31T13:22:56.920Z,20.70
2019-01-31T13:23:56.908Z,21.90
2019-01-31T13:24:58.509Z,20.10
2019-01-31T13:25:56.885Z,21.10
2019-01-31T13:26:56.874Z,22.60
2019-01-31T13:27:56.865Z,20.50
2019-01-31T13:28:56.859Z,22.50
2019-01-31T13:29:56.844Z,21.60
2019-01-31T13:30:56.950Z,20.80
2019-01-31T13:31:56.820Z,20.70
2019-01-31T13:32:56.869Z,19.40
2019-01-31T13:33:56.818Z,20.20
2019-01-31T13:34:56.905Z,21.10
2019-01-31T13:35:56.796Z,20.80
2019-01-31T13:36:56.769Z,20.30
2019-01-31T13:37:56.755Z,21.60
2019-01-31T13:38:56.871Z,22.00
2019-01-31T13:39:56.740Z,22.10
2019-01-31T13:40:56.732Z,20.70
2019-01-31T13:41:56.714Z,22.20
2019-01-31T13:42:56.704Z,21.00
2019-01-31T13:43:57.912Z,22.40
2019-01-31T13:44:56.697Z,26.00
2019-01-31T13:45:56.671Z,21.70